Weather reports worldwide

Advertisment
Chateau Chinon, France (7270): temperature & dewpoint: 12.09.2019 05:00:00 - 18.09.2019 05:00:00 (CEST)Chateau Chinon, France (7270): wind speed & gusts: 12.09.2019 05:00:00 - 18.09.2019 05:00:00 (CEST)Chateau Chinon, France (7270): wind direction: 12.09.2019 05:00:00 - 18.09.2019 05:00:00 (CEST)Chateau Chinon, France (7270): precipitation: 12.09.2019 05:00:00 - 18.09.2019 05:00:00 (CEST)
Date & Time tt [°C] td [°C] ff [km/h] ff [kn] fx [km/h] fx [kn] dd rr [mm]
18.09.2019 05:00:00 12,2 6,0 4 2 34 18 ENE 0,0
18.09.2019 04:00:00 12,9 6,0 5 3 34 18 ENE 0,0
18.09.2019 03:00:00 13,4 7,2 4 2 34 18 NE 0,0
18.09.2019 02:00:00 13,8 7,3 5 3 34 18 ENE -
18.09.2019 01:00:00 13,6 7,4 8 4 44 24 ENE 0,0
18.09.2019 00:00:00 13,7 7,9 8 4 39 21 E 0,0
17.09.2019 23:00:00 14,3 8,7 8 4 35 19 ENE 0,0
17.09.2019 22:00:00 15,2 9,5 5 3 26 14 NE 0,0
17.09.2019 21:00:00 15,9 10,2 8 4 29 16 ENE 0,0
17.09.2019 20:00:00 17,3 10,9 5 3 29 16 ENE -
17.09.2019 19:00:00 19,5 11,8 8 4 28 15 NE 0,0
17.09.2019 18:00:00 21,9 12,2 8 4 26 14 NE 0,0
17.09.2019 17:00:00 23,9 11,2 8 4 26 14 N 0,0
17.09.2019 16:00:00 24,4 11,4 8 4 26 14 N 0,0
17.09.2019 15:00:00 25,0 11,2 5 3 26 14 N 0,0
17.09.2019 14:00:00 24,4 11,7 5 3 22 12 N -
17.09.2019 13:00:00 24,1 11,1 5 3 18 10 N 0,0
17.09.2019 12:00:00 23,4 11,4 4 2 13 7 N 0,0
17.09.2019 11:00:00 22,0 11,4 2 1 15 8 NNW 0,0
17.09.2019 10:00:00 21,1 11,1 2 1 13 7 E 0,0
17.09.2019 09:00:00 17,2 7,8 4 2 13 7 E 0,0
17.09.2019 08:00:00 14,1 5,2 4 2 9 5 E -
17.09.2019 07:00:00 14,2 4,2 4 2 11 6 E 0,0
17.09.2019 06:00:00 14,7 3,2 4 2 13 7 E 0,0
17.09.2019 05:00:00 14,9 3,1 4 2 13 7 E 0,0
17.09.2019 04:00:00 15,0 3,2 4 2 11 6 E 0,0
17.09.2019 03:00:00 15,6 6,8 4 2 15 8 E 0,0
17.09.2019 02:00:00 16,5 7,4 4 2 16 9 E -
17.09.2019 01:00:00 17,8 7,2 8 4 21 11 E 0,0
17.09.2019 00:00:00 17,7 7,4 8 4 18 10 E 0,0
16.09.2019 23:00:00 18,4 7,2 8 4 21 11 E 0,0
16.09.2019 22:00:00 19,2 6,6 5 3 24 13 E 0,0
16.09.2019 21:00:00 20,8 4,8 5 3 22 12 E 0,0
16.09.2019 20:00:00 22,9 3,9 5 3 15 8 NE -
16.09.2019 19:00:00 25,2 5,4 5 3 18 10 NW 0,0
16.09.2019 18:00:00 27,6 8,0 4 2 16 9 NNW 0,0
16.09.2019 17:00:00 29,6 9,2 4 2 15 8 N 0,0
16.09.2019 16:00:00 29,9 9,9 4 2 16 9 NW 0,0
16.09.2019 15:00:00 30,0 10,0 4 2 16 9 WNW 0,0
16.09.2019 14:00:00 29,4 10,0 4 2 18 10 NW -
16.09.2019 13:00:00 27,6 13,2 5 3 16 9 NW 0,0
16.09.2019 12:00:00 25,7 13,2 4 2 11 6 NW 0,0
16.09.2019 11:00:00 24,3 13,2 4 2 11 6 W 0,0
16.09.2019 10:00:00 23,6 12,9 2 1 8 4 WNW 0,0
16.09.2019 09:00:00 20,3 12,0 2 1 5 3 W 0,0
16.09.2019 08:00:00 18,7 11,5 2 1 8 4 W -
16.09.2019 07:00:00 19,9 11,4 0 0 13 7 N 0,0
16.09.2019 06:00:00 20,5 11,1 5 3 9 5 SSE 0,0
16.09.2019 05:00:00 20,2 12,4 4 2 9 5 SSE 0,0
16.09.2019 04:00:00 19,8 12,8 4 2 13 7 SE 0,0
16.09.2019 03:00:00 19,2 12,7 4 2 15 8 ESE 0,0
16.09.2019 02:00:00 19,6 12,8 8 4 16 9 ESE -
16.09.2019 01:00:00 19,6 11,6 4 2 13 7 E 0,0
16.09.2019 00:00:00 19,9 11,6 4 2 13 7 E 0,0
15.09.2019 23:00:00 20,3 11,2 4 2 24 13 E 0,0
15.09.2019 22:00:00 20,9 11,2 4 2 13 7 E 0,0
15.09.2019 21:00:00 22,4 10,8 4 2 13 7 E 0,0
15.09.2019 20:00:00 23,9 10,6 5 3 13 7 NW -
15.09.2019 19:00:00 26,6 11,1 0 0 9 5 N 0,0
15.09.2019 18:00:00 28,6 10,7 2 1 15 8 SSW 0,0
15.09.2019 17:00:00 29,6 10,2 4 2 13 7 W 0,0
15.09.2019 16:00:00 29,8 10,4 4 2 16 9 W 0,0
15.09.2019 15:00:00 29,4 11,0 4 2 18 10 NW 0,0
15.09.2019 14:00:00 28,6 13,7 4 2 15 8 NW -
15.09.2019 13:00:00 26,8 14,5 4 2 15 8 WSW 0,0
15.09.2019 12:00:00 26,1 14,5 2 1 11 6 W 0,0
15.09.2019 11:00:00 24,7 13,3 4 2 9 5 WSW 0,0
15.09.2019 10:00:00 23,3 13,5 5 3 9 5 SW 0,0
15.09.2019 09:00:00 21,9 12,2 2 1 8 4 SSW 0,0
15.09.2019 08:00:00 19,4 9,8 4 2 8 4 SSE -
15.09.2019 07:00:00 18,9 9,7 4 2 9 5 SE 0,0
15.09.2019 06:00:00 18,5 11,1 4 2 9 5 SE 0,0
15.09.2019 05:00:00 18,2 11,7 4 2 13 7 SE 0,0
15.09.2019 04:00:00 18,4 11,9 5 3 15 8 SE 0,0
15.09.2019 03:00:00 18,3 12,7 4 2 13 7 ESE 0,0
15.09.2019 02:00:00 18,2 12,9 4 2 18 10 E -
15.09.2019 01:00:00 18,6 13,5 4 2 18 10 E 0,0
15.09.2019 00:00:00 18,8 13,4 4 2 13 7 E 0,0
14.09.2019 23:00:00 19,3 13,2 4 2 28 15 E 0,0
14.09.2019 22:00:00 19,1 12,6 4 2 21 11 E 0,0
14.09.2019 21:00:00 19,8 12,5 2 1 11 6 ENE 0,0
14.09.2019 20:00:00 21,8 12,1 2 1 15 8 ENE -
14.09.2019 19:00:00 25,1 12,7 0 0 8 4 N 0,0
14.09.2019 18:00:00 27,0 13,7 2 1 13 7 NNE 0,0
14.09.2019 17:00:00 27,6 12,8 4 2 15 8 N 0,0
14.09.2019 16:00:00 27,8 11,4 4 2 16 9 WSW 0,0
14.09.2019 15:00:00 27,8 11,8 5 3 15 8 S 0,0
14.09.2019 14:00:00 26,4 11,7 5 3 15 8 SE -
14.09.2019 13:00:00 24,6 13,8 4 2 15 8 ESE 0,0
14.09.2019 12:00:00 24,5 14,9 4 2 15 8 SSE 0,0
14.09.2019 11:00:00 22,8 14,6 4 2 18 10 ENE 0,0
14.09.2019 10:00:00 21,0 14,6 4 2 18 10 ESE 0,0
14.09.2019 09:00:00 18,0 14,1 4 2 16 9 E 0,0
14.09.2019 08:00:00 15,3 13,3 8 4 21 11 E -
14.09.2019 07:00:00 14,6 12,8 5 3 21 11 E 0,2
14.09.2019 06:00:00 14,8 13,0 4 2 22 12 E 0,0
14.09.2019 05:00:00 15,0 13,0 5 3 18 10 E 0,0
14.09.2019 04:00:00 15,0 13,0 4 2 15 8 E 0,0
14.09.2019 03:00:00 15,7 13,0 4 2 18 10 E 0,0
14.09.2019 02:00:00 16,3 13,0 8 4 22 12 E -
14.09.2019 01:00:00 17,1 12,4 5 3 18 10 E 0,0
14.09.2019 00:00:00 16,9 11,8 4 2 18 10 E 0,0
13.09.2019 23:00:00 17,4 12,1 4 2 24 13 E 0,0
13.09.2019 22:00:00 18,1 12,8 4 2 28 15 ENE 0,0
13.09.2019 21:00:00 18,7 13,1 4 2 29 16 E 0,0
13.09.2019 20:00:00 20,5 13,7 5 3 24 13 ENE -
13.09.2019 19:00:00 22,8 13,8 5 3 29 16 NE 0,0
13.09.2019 18:00:00 25,7 13,9 5 3 24 13 NE 0,0
13.09.2019 17:00:00 27,0 13,7 5 3 24 13 ENE 0,0
13.09.2019 16:00:00 27,4 14,1 8 4 24 13 NE 0,0
13.09.2019 15:00:00 26,7 13,8 5 3 18 10 ENE 0,0
13.09.2019 14:00:00 26,5 13,9 4 2 22 12 NE -
13.09.2019 13:00:00 25,7 14,2 4 2 18 10 NNE 0,0
13.09.2019 12:00:00 24,0 13,8 5 3 15 8 N 0,0
13.09.2019 11:00:00 22,6 13,9 4 2 11 6 NW 0,0
13.09.2019 10:00:00 21,7 14,1 4 2 15 8 SE 0,0
13.09.2019 09:00:00 18,3 13,8 4 2 22 12 E 0,0
13.09.2019 08:00:00 15,3 13,0 5 3 18 10 E -
13.09.2019 07:00:00 15,2 12,7 4 2 21 11 E 0,0
13.09.2019 06:00:00 15,3 12,6 5 3 18 10 E 0,0
13.09.2019 05:00:00 15,3 12,2 4 2 16 9 E 0,0
13.09.2019 04:00:00 15,8 12,4 5 3 16 9 E 0,0
13.09.2019 03:00:00 15,7 12,3 4 2 18 10 E 0,0
13.09.2019 02:00:00 15,8 12,2 4 2 18 10 E -
13.09.2019 01:00:00 16,0 12,2 4 2 13 7 E 0,0
13.09.2019 00:00:00 16,5 11,6 4 2 13 7 E 0,0
12.09.2019 23:00:00 17,2 11,7 4 2 15 8 E 0,0
12.09.2019 22:00:00 18,1 11,6 2 1 9 5 E 0,0
12.09.2019 21:00:00 19,3 11,6 2 1 11 6 E 0,0
12.09.2019 20:00:00 20,6 11,5 4 2 15 8 WNW -
12.09.2019 19:00:00 23,0 11,7 5 3 22 12 NNW 0,0
12.09.2019 18:00:00 24,6 10,8 4 2 15 8 NE 0,0
12.09.2019 17:00:00 25,8 10,4 4 2 18 10 W 0,0
12.09.2019 16:00:00 25,7 11,1 4 2 18 10 WNW 0,0
12.09.2019 15:00:00 24,8 10,3 4 2 13 7 W 0,0
12.09.2019 14:00:00 24,1 10,4 4 2 15 8 W -
12.09.2019 13:00:00 23,4 9,8 4 2 16 9 WNW 0,0
12.09.2019 12:00:00 21,2 9,4 4 2 11 6 N 0,0
12.09.2019 11:00:00 19,4 8,1 4 2 16 9 N 0,0
12.09.2019 10:00:00 18,3 7,1 5 3 13 7 NNW 0,0
12.09.2019 09:00:00 16,7 7,1 2 1 8 4 NNE 0,0
12.09.2019 08:00:00 14,1 6,2 4 2 8 4 SE -
12.09.2019 07:00:00 12,8 6,2 4 2 11 6 ESE 0,0
12.09.2019 06:00:00 13,4 6,3 4 2 13 7 ESE 0,0
12.09.2019 05:00:00 13,5 6,1 4 2 9 5 E 0,0

tt = temperature
td = dewpoint
ff = wind speed
fx = gusts
dd = wind direction
rr = precipitation

Next stations